Time;durP1;ratioP1;P1;durP2;ratioP2;P2;SDS_P1;SDS_P2;PMS_P1;PMS_P2;Temp;Humidity;BMP_temperature;BMP_pressure;BME280_temperature;BME280_humidity;BME280_pressure;Samples;Min_cycle;Max_cycle;Signal;HPM_P1;HPM_P2
2021/03/29 00:02:17;;;;;;;10.95;2.67;;;9.30;97.00;;;;;;5090031;28;20053;-69
2021/03/29 00:04:43;;;;;;;7.38;1.83;;;9.30;97.00;;;;;;5090038;28;20063;-69
2021/03/29 00:07:10;;;;;;;9.52;1.75;;;9.30;97.10;;;;;;5085888;28;20076;-69
2021/03/29 00:09:38;;;;;;;8.70;2.00;;;9.30;97.20;;;;;;5088028;28;20394;-69
2021/03/29 00:12:07;;;;;;;10.23;2.08;;;9.30;96.80;;;;;;5086350;28;20043;-69
2021/03/29 00:14:36;;;;;;;13.77;2.72;;;9.30;97.00;;;;;;5087094;28;20428;-69
2021/03/29 00:17:02;;;;;;;10.98;2.47;;;9.40;96.90;;;;;;5088049;28;20113;-69
2021/03/29 00:19:30;;;;;;;11.65;3.08;;;9.30;97.00;;;;;;5089270;28;20036;-69
2021/03/29 00:21:56;;;;;;;6.63;1.95;;;9.30;97.10;;;;;;5085372;28;20111;-69
2021/03/29 00:24:22;;;;;;;6.88;1.92;;;9.20;97.30;;;;;;5087850;28;20546;-69
2021/03/29 00:26:48;;;;;;;10.27;1.95;;;9.20;97.20;;;;;;5088453;28;20047;-69
2021/03/29 00:29:14;;;;;;;11.70;2.88;;;9.20;97.20;;;;;;5088485;28;20070;-69
2021/03/29 00:31:41;;;;;;;11.30;2.50;;;9.10;97.20;;;;;;5089694;28;20060;-69
2021/03/29 00:34:08;;;;;;;9.98;2.63;;;9.10;97.30;;;;;;5089101;28;20040;-69
2021/03/29 00:36:35;;;;;;;10.75;2.25;;;9.10;97.40;;;;;;5090160;28;20039;-69
2021/03/29 00:39:04;;;;;;;8.95;3.10;;;9.10;97.50;;;;;;5086038;28;20050;-69
2021/03/29 00:41:30;;;;;;;13.05;2.70;;;9.10;97.50;;;;;;5086504;28;20389;-69
2021/03/29 00:43:56;;;;;;;5.88;2.10;;;9.10;97.60;;;;;;5088678;28;20040;-69
2021/03/29 00:46:23;;;;;;;7.03;1.88;;;9.20;97.50;;;;;;5089785;28;20032;-68
2021/03/29 00:48:51;;;;;;;10.00;3.03;;;9.20;97.50;;;;;;5090234;28;20049;-68
2021/03/29 00:51:24;;;;;;;11.52;2.20;;;9.20;97.50;;;;;;5087595;28;20048;-68
2021/03/29 00:53:53;;;;;;;9.07;2.65;;;9.20;97.40;;;;;;5089521;28;20101;-69
2021/03/29 00:56:20;;;;;;;11.02;1.98;;;9.20;97.30;;;;;;5088480;28;20036;-69
2021/03/29 00:58:47;;;;;;;5.72;2.33;;;9.30;97.30;;;;;;5090642;28;20040;-69
2021/03/29 01:01:27;;;;;;;9.45;2.17;;;9.20;97.20;;;;;;5089117;28;20094;-69
2021/03/29 01:03:58;;;;;;;9.15;2.78;;;9.20;97.20;;;;;;5084696;28;20053;-69
2021/03/29 01:06:26;;;;;;;8.98;2.05;;;9.20;97.30;;;;;;5088708;28;20040;-69
2021/03/29 01:09:00;;;;;;;11.10;2.88;;;9.20;97.30;;;;;;5088278;28;20039;-69
2021/03/29 01:11:28;;;;;;;8.55;2.72;;;9.20;97.30;;;;;;5086091;28;20483;-69
2021/03/29 01:14:02;;;;;;;9.48;2.20;;;9.20;97.30;;;;;;5087820;28;20517;-69
2021/03/29 01:16:32;;;;;;;8.65;2.25;;;9.20;97.20;;;;;;5081724;28;20032;-69
2021/03/29 01:19:00;;;;;;;12.05;2.78;;;9.30;97.20;;;;;;5086586;28;20031;-69
2021/03/29 01:21:52;;;;;;;7.22;2.30;;;9.30;97.30;;;;;;5084434;28;20092;-69
2021/03/29 01:24:29;;;;;;;9.52;2.38;;;9.30;97.40;;;;;;5087539;28;20036;-69
2021/03/29 01:26:56;;;;;;;6.70;1.98;;;9.30;97.00;;;;;;5089086;28;20039;-69
2021/03/29 01:29:30;;;;;;;8.35;2.65;;;9.30;97.10;;;;;;5091585;28;20032;-69
2021/03/29 01:31:58;;;;;;;9.50;2.35;;;9.30;97.10;;;;;;5090202;28;20036;-69
2021/03/29 01:34:25;;;;;;;7.72;2.53;;;9.30;97.00;;;;;;5087860;28;20059;-69
2021/03/29 01:36:51;;;;;;;11.93;2.80;;;9.30;97.00;;;;;;5088418;28;20043;-69
2021/03/29 01:39:18;;;;;;;11.00;2.53;;;9.30;97.00;;;;;;5090151;28;20044;-69
2021/03/29 01:41:44;;;;;;;16.35;3.17;;;9.40;96.90;;;;;;5090877;28;20040;-69
2021/03/29 01:44:10;;;;;;;9.27;2.60;;;9.30;96.80;;;;;;5092469;28;20101;-69
2021/03/29 01:46:37;;;;;;;9.40;2.20;;;9.40;96.80;;;;;;5093216;28;20036;-69
2021/03/29 01:49:03;;;;;;;7.05;1.80;;;9.40;96.70;;;;;;5090418;28;20058;-69
2021/03/29 01:51:31;;;;;;;7.85;2.30;;;9.50;96.60;;;;;;5090351;28;20036;-69
2021/03/29 01:54:01;;;;;;;7.45;2.25;;;9.40;96.70;;;;;;5091425;28;20486;-69
2021/03/29 01:56:27;;;;;;;9.20;2.70;;;9.40;96.50;;;;;;5091156;28;20107;-69
2021/03/29 01:58:53;;;;;;;8.75;2.80;;;9.40;96.40;;;;;;5091839;28;20115;-69
2021/03/29 02:01:19;;;;;;;9.48;2.70;;;9.40;96.30;;;;;;5089721;28;20062;-69
2021/03/29 02:03:48;;;;;;;11.32;3.15;;;9.50;96.40;;;;;;5089773;28;20036;-69
2021/03/29 02:06:14;;;;;;;14.32;2.70;;;9.50;96.50;;;;;;5093459;28;20036;-69
2021/03/29 02:08:41;;;;;;;8.40;2.55;;;9.50;96.40;;;;;;5093005;28;20040;-69
2021/03/29 02:11:07;;;;;;;9.70;2.78;;;9.50;96.50;;;;;;5092019;28;20036;-69
2021/03/29 02:13:36;;;;;;;14.50;3.17;;;9.50;96.40;;;;;;5092841;28;20067;-69
2021/03/29 02:16:08;;;;;;;10.15;3.20;;;9.50;96.30;;;;;;5090817;28;20047;-69
2021/03/29 02:18:40;;;;;;;9.95;2.83;;;9.50;96.30;;;;;;5092944;28;20043;-69
2021/03/29 02:21:13;;;;;;;11.07;3.00;;;9.40;96.30;;;;;;5090884;28;20093;-69
2021/03/29 02:23:42;;;;;;;13.35;2.83;;;9.40;96.40;;;;;;5089656;28;20062;-68
2021/03/29 02:26:09;;;;;;;10.02;2.65;;;9.40;96.40;;;;;;5087187;28;20040;-68
2021/03/29 02:28:35;;;;;;;14.85;2.90;;;9.50;96.40;;;;;;5091143;28;20498;-68
2021/03/29 02:31:03;;;;;;;10.57;3.17;;;9.50;96.30;;;;;;5087637;28;20032;-68
2021/03/29 02:33:31;;;;;;;13.20;3.50;;;9.50;96.30;;;;;;5090428;28;20071;-69
2021/03/29 02:35:58;;;;;;;16.88;4.38;;;9.50;96.30;;;;;;5092496;28;20036;-68
2021/03/29 02:38:24;;;;;;;9.10;3.13;;;9.50;96.40;;;;;;5092101;28;20082;-68
2021/03/29 02:40:53;;;;;;;9.77;3.67;;;9.50;96.20;;;;;;5089860;28;20051;-68
2021/03/29 02:43:20;;;;;;;8.20;3.00;;;9.50;96.20;;;;;;5090689;28;21051;-68
2021/03/29 02:45:51;;;;;;;7.63;3.58;;;9.50;96.10;;;;;;5091784;28;20442;-68
2021/03/29 02:48:18;;;;;;;12.55;3.13;;;9.50;96.10;;;;;;5091234;28;20437;-68
2021/03/29 02:50:47;;;;;;;7.28;3.45;;;9.50;96.10;;;;;;5092438;28;20044;-68
2021/03/29 02:53:16;;;;;;;11.23;3.83;;;9.50;96.20;;;;;;5089652;28;20109;-68
2021/03/29 02:55:44;;;;;;;9.13;3.53;;;9.50;96.20;;;;;;5092591;28;20071;-68
2021/03/29 02:58:12;;;;;;;11.45;3.63;;;9.50;96.20;;;;;;5090887;28;20071;-68
2021/03/29 03:00:38;;;;;;;9.88;3.53;;;9.50;96.20;;;;;;5087873;28;20032;-68
2021/03/29 03:03:06;;;;;;;10.10;3.22;;;9.50;95.80;;;;;;5091299;28;20127;-68
2021/03/29 03:05:34;;;;;;;12.02;3.75;;;9.50;95.90;;;;;;5090838;28;20115;-68
2021/03/29 03:08:01;;;;;;;14.63;5.40;;;9.50;96.00;;;;;;5090240;28;20052;-68
2021/03/29 03:10:30;;;;;;;12.88;4.05;;;9.50;96.10;;;;;;5092026;28;20490;-68
2021/03/29 03:12:57;;;;;;;10.10;3.83;;;9.50;96.00;;;;;;5083995;28;20111;-68
2021/03/29 03:15:28;;;;;;;14.45;4.43;;;9.50;96.00;;;;;;5090888;28;20107;-68
2021/03/29 03:17:55;;;;;;;10.20;3.80;;;9.40;96.00;;;;;;5091964;28;20428;-68
2021/03/29 03:20:21;;;;;;;9.57;4.38;;;9.50;96.00;;;;;;5091357;28;20047;-68
2021/03/29 03:22:51;;;;;;;9.15;3.28;;;9.40;96.00;;;;;;5089562;28;20044;-68
2021/03/29 03:25:38;;;;;;;8.93;3.97;;;9.40;96.00;;;;;;5091066;28;20578;-68
2021/03/29 03:28:06;;;;;;;9.68;3.53;;;9.40;96.10;;;;;;5090899;28;20032;-68
2021/03/29 03:30:38;;;;;;;11.07;3.97;;;9.40;96.20;;;;;;5090096;28;20059;-68
2021/03/29 03:33:07;;;;;;;12.63;4.50;;;9.40;96.10;;;;;;5090161;28;20044;-68
2021/03/29 03:35:35;;;;;;;11.70;4.13;;;9.30;96.10;;;;;;5091153;28;20028;-68
2021/03/29 03:38:24;;;;;;;12.18;4.13;;;9.30;96.30;;;;;;5088299;28;20661;-68
2021/03/29 03:41:04;;;;;;;7.80;4.00;;;9.30;96.20;;;;;;5088472;28;20047;-68
2021/03/29 03:43:33;;;;;;;11.90;4.15;;;9.30;96.30;;;;;;5090155;28;20493;-68
2021/03/29 03:46:07;;;;;;;11.00;3.63;;;9.20;96.30;;;;;;5089845;28;20491;-68
2021/03/29 03:48:34;;;;;;;13.27;6.82;;;9.20;96.30;;;;;;5090056;28;20077;-68
2021/03/29 03:51:00;;;;;;;10.70;4.55;;;9.20;96.40;;;;;;5091592;28;20040;-68
2021/03/29 03:53:28;;;;;;;11.57;4.57;;;9.20;96.40;;;;;;5088174;28;20036;-68
2021/03/29 03:55:56;;;;;;;11.82;4.55;;;9.20;96.40;;;;;;5090993;28;20459;-68
2021/03/29 03:58:23;;;;;;;11.10;4.22;;;9.20;96.50;;;;;;5090065;28;20097;-68
2021/03/29 04:00:49;;;;;;;12.27;4.75;;;9.10;96.50;;;;;;5090684;28;20040;-68
2021/03/29 04:03:15;;;;;;;12.43;5.00;;;9.10;96.50;;;;;;5086490;28;20482;-68
2021/03/29 04:05:40;;;;;;;10.35;4.97;;;9.10;96.60;;;;;;5089438;28;20113;-68
2021/03/29 04:08:07;;;;;;;14.90;5.10;;;9.20;96.50;;;;;;5090377;28;20563;-68
2021/03/29 04:13:07;;;;;;;16.88;5.25;;;9.10;96.70;;;;;;5089510;28;20032;-68
2021/03/29 04:15:33;;;;;;;16.20;5.47;;;9.10;96.60;;;;;;5087431;28;20432;-68
2021/03/29 04:17:59;;;;;;;18.33;5.57;;;9.10;96.80;;;;;;5090591;28;20051;-68
2021/03/29 04:20:31;;;;;;;8.82;4.60;;;9.10;96.70;;;;;;5089516;28;20498;-69
2021/03/29 04:22:57;;;;;;;10.68;5.30;;;9.10;96.70;;;;;;5088745;28;20089;-69
2021/03/29 04:25:23;;;;;;;9.63;4.82;;;9.20;96.70;;;;;;5089450;28;20497;-69
2021/03/29 04:27:49;;;;;;;14.52;5.88;;;9.10;96.70;;;;;;5088824;28;20059;-69
2021/03/29 04:30:15;;;;;;;12.88;5.22;;;9.10;96.70;;;;;;5090219;28;20032;-69
2021/03/29 04:32:46;;;;;;;8.55;4.50;;;9.10;97.00;;;;;;5087769;28;20036;-69
2021/03/29 04:35:14;;;;;;;12.70;5.47;;;9.10;96.80;;;;;;5090608;28;20110;-69
2021/03/29 04:37:40;;;;;;;11.05;5.00;;;9.10;96.80;;;;;;5087239;28;20480;-69
2021/03/29 04:40:06;;;;;;;15.23;5.57;;;9.10;96.80;;;;;;5085817;28;20044;-69
2021/03/29 04:42:33;;;;;;;13.50;5.05;;;9.00;96.90;;;;;;5085973;28;20123;-69
2021/03/29 04:44:58;;;;;;;12.02;5.35;;;9.10;97.00;;;;;;5087890;28;20042;-69
2021/03/29 04:47:24;;;;;;;8.15;4.35;;;9.10;97.00;;;;;;5089242;28;20044;-69
2021/03/29 04:49:50;;;;;;;8.93;4.80;;;9.00;97.00;;;;;;5088426;28;20040;-69
2021/03/29 04:52:16;;;;;;;12.93;5.28;;;9.10;96.90;;;;;;5088866;28;20071;-69
2021/03/29 04:54:42;;;;;;;11.70;5.60;;;9.10;97.00;;;;;;5090712;28;20509;-69
2021/03/29 04:57:08;;;;;;;22.10;5.78;;;9.10;97.00;;;;;;5088456;28;20031;-69
2021/03/29 04:59:34;;;;;;;12.57;4.50;;;9.10;97.10;;;;;;5089432;28;20036;-69
2021/03/29 05:01:59;;;;;;;7.85;4.15;;;9.00;96.90;;;;;;5085435;28;20101;-69
2021/03/29 05:04:25;;;;;;;15.65;5.47;;;9.10;97.00;;;;;;5089973;28;20113;-69
2021/03/29 05:06:51;;;;;;;11.85;4.70;;;9.10;97.00;;;;;;5089765;28;20481;-69
2021/03/29 05:09:16;;;;;;;13.98;4.60;;;9.10;97.00;;;;;;5089338;28;20402;-69
2021/03/29 05:11:47;;;;;;;14.73;5.03;;;9.00;97.10;;;;;;5084004;28;20054;-69
2021/03/29 05:14:14;;;;;;;13.80;5.18;;;9.00;97.10;;;;;;5084694;28;20046;-69
2021/03/29 05:16:40;;;;;;;9.40;4.70;;;9.00;97.10;;;;;;5087400;28;20130;-68
2021/03/29 05:19:06;;;;;;;12.00;4.53;;;9.00;97.20;;;;;;5090047;28;20044;-69
2021/03/29 05:21:32;;;;;;;12.90;4.70;;;9.10;97.20;;;;;;5089762;28;20050;-69
2021/03/29 05:23:58;;;;;;;12.70;4.43;;;9.00;97.20;;;;;;5087581;28;20485;-69
2021/03/29 05:26:24;;;;;;;10.10;4.38;;;9.00;97.30;;;;;;5090279;28;20056;-69
2021/03/29 05:28:49;;;;;;;13.30;4.28;;;9.00;97.30;;;;;;5090046;28;20485;-69
2021/03/29 05:31:15;;;;;;;12.48;4.05;;;9.00;97.40;;;;;;5088760;28;20113;-69
2021/03/29 05:33:41;;;;;;;10.27;3.83;;;9.00;97.30;;;;;;5088991;28;20451;-69
2021/03/29 05:36:13;;;;;;;21.17;5.60;;;9.00;97.40;;;;;;5090150;28;20107;-69
2021/03/29 05:38:41;;;;;;;14.60;4.68;;;9.00;97.30;;;;;;5089884;28;20040;-69
2021/03/29 05:41:12;;;;;;;11.23;3.67;;;9.10;97.30;;;;;;5090273;28;20028;-69
2021/03/29 05:43:40;;;;;;;12.07;4.55;;;9.10;97.30;;;;;;5084340;28;20047;-69
2021/03/29 05:46:06;;;;;;;15.95;4.53;;;9.10;97.20;;;;;;5090322;28;20047;-69
2021/03/29 05:48:34;;;;;;;10.82;4.25;;;9.20;97.20;;;;;;5089408;28;20074;-69
2021/03/29 05:51:02;;;;;;;12.45;3.83;;;9.30;97.40;;;;;;5088618;28;20056;-69
2021/03/29 05:53:28;;;;;;;13.50;4.03;;;9.30;97.10;;;;;;5087253;28;20545;-69
2021/03/29 05:55:54;;;;;;;11.98;3.88;;;9.40;96.80;;;;;;5089568;28;20147;-69
2021/03/29 06:00:54;;;;;;;13.40;3.92;;;9.70;96.50;;;;;;5086761;28;20040;-70
2021/03/29 06:03:31;;;;;;;11.38;3.53;;;9.90;96.30;;;;;;5088390;28;20044;-69
2021/03/29 06:06:12;;;;;;;12.15;3.80;;;10.10;95.90;;;;;;5087341;28;20036;-68
2021/03/29 06:08:42;;;;;;;11.50;3.47;;;10.40;95.50;;;;;;5087255;28;20044;-69
2021/03/29 06:11:22;;;;;;;11.02;3.28;;;10.80;95.00;;;;;;5090691;28;20111;-69
2021/03/29 06:14:05;;;;;;;11.02;4.15;;;11.20;94.10;;;;;;5090630;28;20055;-69
2021/03/29 06:16:31;;;;;;;10.38;2.88;;;11.60;93.40;;;;;;5089313;28;20036;-69
2021/03/29 06:18:57;;;;;;;9.10;3.38;;;11.70;93.00;;;;;;5092829;28;20402;-69
2021/03/29 06:21:23;;;;;;;12.35;3.85;;;12.00;92.40;;;;;;5087573;28;20063;-69
2021/03/29 06:23:59;;;;;;;11.35;3.30;;;12.20;92.00;;;;;;5094579;28;20044;-69
2021/03/29 06:26:28;;;;;;;11.00;2.88;;;12.30;91.60;;;;;;5093128;28;20063;-70
2021/03/29 06:28:55;;;;;;;11.73;2.50;;;12.40;91.60;;;;;;5095615;28;20161;-68
2021/03/29 06:31:22;;;;;;;10.25;4.15;;;12.50;91.40;;;;;;5090452;28;20036;-70
2021/03/29 06:33:49;;;;;;;12.57;2.80;;;12.70;91.20;;;;;;5090429;28;20045;-70
2021/03/29 06:36:27;;;;;;;12.75;3.47;;;12.70;90.80;;;;;;5090716;28;20032;-70
2021/03/29 06:38:54;;;;;;;7.90;2.72;;;12.90;90.60;;;;;;5086895;28;20044;-70
2021/03/29 06:41:28;;;;;;;9.55;2.67;;;13.00;90.50;;;;;;5086887;28;20109;-69
2021/03/29 06:43:55;;;;;;;11.55;3.53;;;13.10;90.30;;;;;;5088345;28;20402;-70
2021/03/29 06:46:24;;;;;;;7.55;3.05;;;13.30;89.80;;;;;;5085694;28;20044;-69
2021/03/29 06:48:50;;;;;;;11.55;3.80;;;13.30;89.90;;;;;;5087756;28;20059;-69
2021/03/29 06:51:21;;;;;;;14.50;3.25;;;13.40;89.10;;;;;;5089046;28;20140;-69
2021/03/29 06:54:04;;;;;;;8.15;2.60;;;13.50;89.10;;;;;;5087690;28;20107;-69
2021/03/29 06:56:35;;;;;;;6.57;2.70;;;13.60;88.80;;;;;;5085012;28;20105;-69
2021/03/29 06:59:04;;;;;;;10.85;2.47;;;13.70;87.80;;;;;;5084898;28;20128;-69
2021/03/29 07:01:51;;;;;;;13.48;4.05;;;13.50;88.80;;;;;;5088675;28;20047;-69
2021/03/29 07:04:21;;;;;;;9.00;2.75;;;13.50;89.10;;;;;;5091734;28;20048;-69
2021/03/29 07:06:49;;;;;;;9.88;2.92;;;13.20;88.80;;;;;;5088334;28;20028;-69
2021/03/29 07:09:17;;;;;;;10.48;2.30;;;13.00;90.00;;;;;;5087289;28;20028;-69
2021/03/29 07:11:45;;;;;;;10.32;2.90;;;12.90;90.60;;;;;;5083764;28;20040;-69
2021/03/29 07:14:12;;;;;;;11.60;2.83;;;12.70;91.10;;;;;;5087076;28;20036;-69
2021/03/29 07:16:40;;;;;;;9.25;2.80;;;12.60;91.00;;;;;;5088217;28;20047;-69
2021/03/29 07:19:08;;;;;;;10.48;2.88;;;12.40;91.50;;;;;;5089515;28;20044;-69
2021/03/29 07:21:35;;;;;;;13.43;4.30;;;12.40;91.60;;;;;;5086718;28;20496;-70
2021/03/29 07:24:10;;;;;;;14.52;3.30;;;12.30;91.90;;;;;;5088878;28;20036;-70
2021/03/29 07:27:02;;;;;;;10.98;3.42;;;12.30;91.80;;;;;;5090602;28;20071;-69
2021/03/29 07:29:31;;;;;;;13.60;4.28;;;12.30;92.10;;;;;;5084237;28;20045;-69
2021/03/29 07:32:02;;;;;;;10.70;3.47;;;12.20;92.20;;;;;;5084136;28;20031;-69
2021/03/29 07:34:47;;;;;;;10.77;3.10;;;12.10;92.10;;;;;;5088175;28;20452;-70
2021/03/29 07:37:35;;;;;;;14.52;4.15;;;12.20;92.40;;;;;;5087832;28;20393;-69
2021/03/29 07:40:22;;;;;;;9.82;3.38;;;12.30;92.40;;;;;;5089560;28;20044;-69
2021/03/29 07:42:52;;;;;;;11.18;2.72;;;12.30;92.50;;;;;;5078882;28;20051;-69
2021/03/29 07:45:50;;;;;;;12.02;3.42;;;12.50;92.20;;;;;;5088673;28;20044;-69
2021/03/29 07:48:36;;;;;;;9.82;2.40;;;12.50;92.20;;;;;;5085817;28;20127;-70
2021/03/29 07:51:10;;;;;;;13.70;3.27;;;12.60;91.80;;;;;;5090581;28;20529;-69
2021/03/29 07:53:50;;;;;;;12.85;3.22;;;12.60;91.80;;;;;;5087727;28;20043;-70
2021/03/29 07:56:34;;;;;;;12.40;2.38;;;12.50;92.20;;;;;;5086844;28;20044;-70
2021/03/29 07:59:02;;;;;;;15.65;3.53;;;12.50;92.50;;;;;;5086975;28;20055;-70
2021/03/29 08:01:48;;;;;;;11.32;3.60;;;12.50;92.50;;;;;;5086378;28;20104;-69
2021/03/29 08:04:14;;;;;;;11.30;3.17;;;12.50;92.70;;;;;;5090094;28;20085;-70
2021/03/29 08:06:46;;;;;;;10.65;3.17;;;12.60;93.00;;;;;;5089328;28;20044;-69
2021/03/29 08:09:18;;;;;;;12.73;3.17;;;12.90;92.30;;;;;;5086984;28;20520;-69
2021/03/29 08:11:58;;;;;;;19.70;3.03;;;13.00;92.10;;;;;;5088493;28;20846;-69
2021/03/29 08:14:32;;;;;;;11.07;2.45;;;13.50;92.40;;;;;;5089100;28;20044;-70
2021/03/29 08:17:18;;;;;;;9.02;2.55;;;13.70;91.20;;;;;;5088373;28;20032;-69
2021/03/29 08:20:22;;;;;;;12.23;3.17;;;13.90;91.00;;;;;;5088321;28;20044;-70
2021/03/29 08:23:29;;;;;;;10.13;2.25;;;14.20;90.00;;;;;;5085738;28;20075;-70
2021/03/29 08:26:07;;;;;;;13.60;2.75;;;14.50;88.90;;;;;;5087871;28;20074;-70
2021/03/29 08:29:06;;;;;;;13.30;2.92;;;14.80;88.20;;;;;;5089420;28;20115;-70
2021/03/29 08:32:00;;;;;;;8.82;2.67;;;15.00;87.70;;;;;;5088022;28;20164;-70
2021/03/29 08:34:28;;;;;;;12.82;3.03;;;15.50;85.40;;;;;;5088300;28;20498;-70
2021/03/29 08:36:55;;;;;;;10.55;2.85;;;15.80;86.50;;;;;;5087592;28;20035;-70
2021/03/29 08:39:22;;;;;;;10.57;3.08;;;16.00;83.70;;;;;;5088103;28;20910;-70
2021/03/29 08:41:51;;;;;;;10.43;2.47;;;16.10;83.60;;;;;;5085052;28;20149;-71
2021/03/29 08:44:19;;;;;;;11.20;2.83;;;16.20;81.80;;;;;;5086291;28;20045;-70
2021/03/29 08:46:47;;;;;;;6.80;2.55;;;16.30;81.00;;;;;;5088302;28;20048;-70
2021/03/29 08:49:13;;;;;;;9.23;2.85;;;16.40;79.50;;;;;;5084166;28;20040;-70
2021/03/29 08:51:39;;;;;;;13.85;3.88;;;16.40;80.10;;;;;;5085971;28;20047;-70
2021/03/29 08:54:12;;;;;;;10.85;3.40;;;16.50;80.40;;;;;;5088143;28;20036;-70
2021/03/29 08:56:45;;;;;;;13.48;3.50;;;16.60;79.50;;;;;;5089185;28;20067;-70
2021/03/29 08:59:12;;;;;;;18.30;3.72;;;16.70;80.90;;;;;;5087789;28;20127;-70
2021/03/29 09:01:41;;;;;;;11.52;3.75;;;16.60;79.80;;;;;;5089014;28;20181;-70
2021/03/29 09:04:08;;;;;;;14.98;3.88;;;16.20;81.90;;;;;;5086359;28;20171;-71
2021/03/29 09:06:34;;;;;;;10.07;3.75;;;16.00;82.60;;;;;;5089367;28;20047;-70
2021/03/29 09:09:15;;;;;;;11.55;3.30;;;15.80;85.10;;;;;;5086946;28;20040;-70
2021/03/29 09:11:46;;;;;;;11.85;3.63;;;15.90;85.10;;;;;;5087432;28;20044;-70
2021/03/29 09:14:15;;;;;;;18.45;3.53;;;15.80;86.60;;;;;;5087352;28;20130;-69
2021/03/29 09:16:45;;;;;;;10.88;3.13;;;15.80;86.50;;;;;;5082248;28;20048;-71
2021/03/29 09:19:16;;;;;;;15.20;4.32;;;16.00;85.20;;;;;;5086584;28;20032;-70
2021/03/29 09:21:43;;;;;;;13.48;3.78;;;15.90;87.30;;;;;;5084960;28;20036;-70
2021/03/29 09:24:18;;;;;;;13.75;4.50;;;16.10;89.60;;;;;;5088437;28;20070;-69
2021/03/29 09:26:54;;;;;;;12.10;3.30;;;16.20;88.10;;;;;;5087193;28;20044;-70
2021/03/29 09:29:22;;;;;;;19.27;3.75;;;16.30;84.70;;;;;;5087399;28;20048;-70
2021/03/29 09:31:48;;;;;;;15.35;4.15;;;16.10;84.30;;;;;;5081761;28;20093;-70
2021/03/29 09:34:14;;;;;;;12.02;4.00;;;16.10;86.00;;;;;;5085898;28;20104;-68
2021/03/29 09:36:40;;;;;;;12.75;4.20;;;16.10;86.50;;;;;;5086662;28;20498;-68
2021/03/29 09:39:13;;;;;;;15.45;3.15;;;16.20;86.20;;;;;;5083797;28;20039;-69
2021/03/29 09:41:49;;;;;;;14.80;4.43;;;16.20;85.70;;;;;;5083023;28;20044;-69
2021/03/29 09:44:15;;;;;;;11.45;4.00;;;15.90;86.40;;;;;;5087252;28;20465;-69
2021/03/29 09:46:41;;;;;;;14.23;3.88;;;15.90;85.30;;;;;;5088249;28;20068;-69
2021/03/29 09:49:12;;;;;;;16.30;4.03;;;15.90;88.20;;;;;;5088797;28;20121;-69
2021/03/29 09:51:39;;;;;;;13.10;4.00;;;15.70;86.70;;;;;;5086668;28;20067;-69
2021/03/29 09:54:27;;;;;;;18.90;4.15;;;15.50;86.70;;;;;;5089000;28;20047;-69
2021/03/29 09:57:22;;;;;;;15.90;4.90;;;15.60;89.40;;;;;;5088914;28;20047;-69
2021/03/29 09:59:49;;;;;;;13.85;4.45;;;15.60;90.20;;;;;;5091740;28;20036;-69
2021/03/29 10:02:27;;;;;;;15.98;4.32;;;15.80;89.30;;;;;;5089018;28;20040;-69
2021/03/29 10:05:02;;;;;;;14.50;4.38;;;15.80;88.20;;;;;;5091678;28;20044;-69
2021/03/29 10:07:28;;;;;;;18.13;5.40;;;15.80;88.20;;;;;;5092338;28;20028;-69
2021/03/29 10:10:07;;;;;;;17.83;5.82;;;15.70;89.00;;;;;;5093161;28;20044;-69
2021/03/29 10:12:34;;;;;;;15.32;5.35;;;15.70;87.80;;;;;;5088132;28;20047;-69
2021/03/29 10:15:18;;;;;;;13.50;5.00;;;15.60;90.10;;;;;;5090970;28;20044;-69
2021/03/29 10:17:43;;;;;;;17.90;4.78;;;15.50;89.50;;;;;;5088736;28;20058;-69
2021/03/29 10:20:12;;;;;;;13.40;4.88;;;15.50;89.90;;;;;;5088005;28;20059;-69
2021/03/29 10:22:38;;;;;;;18.48;5.78;;;15.60;90.60;;;;;;5091133;28;20495;-69
2021/03/29 10:25:19;;;;;;;17.40;5.90;;;15.70;91.00;;;;;;5091172;28;20038;-69
2021/03/29 10:27:47;;;;;;;17.60;5.15;;;15.90;91.10;;;;;;5090454;28;20038;-69
2021/03/29 10:30:21;;;;;;;17.25;4.80;;;16.00;90.50;;;;;;5090393;28;20032;-69
2021/03/29 10:32:59;;;;;;;15.43;4.45;;;16.00;90.60;;;;;;5088700;28;20066;-69
2021/03/29 10:35:27;;;;;;;16.60;4.95;;;16.00;90.10;;;;;;5092501;28;20055;-69
2021/03/29 10:37:54;;;;;;;14.07;4.22;;;16.00;88.50;;;;;;5089544;28;20091;-70
2021/03/29 10:40:21;;;;;;;13.90;4.72;;;16.10;89.30;;;;;;5091469;28;20055;-69
2021/03/29 10:42:47;;;;;;;18.13;4.45;;;16.10;89.90;;;;;;5089470;28;20118;-69
2021/03/29 10:45:18;;;;;;;16.83;4.28;;;16.10;88.30;;;;;;5089479;28;20472;-69
2021/03/29 10:47:45;;;;;;;18.42;4.68;;;15.90;87.90;;;;;;5089529;28;20115;-69
2021/03/29 10:50:14;;;;;;;20.45;5.25;;;15.80;88.20;;;;;;5091817;28;20048;-69
2021/03/29 10:52:41;;;;;;;13.00;4.25;;;16.00;90.80;;;;;;5089612;28;20127;-69
2021/03/29 10:55:07;;;;;;;16.27;4.63;;;16.10;90.00;;;;;;5088094;28;20052;-70
2021/03/29 10:57:33;;;;;;;17.70;5.45;;;16.00;88.80;;;;;;5089879;28;20472;-69
2021/03/29 11:00:00;;;;;;;21.05;5.95;;;16.10;90.20;;;;;;5089843;28;20108;-69
2021/03/29 11:02:28;;;;;;;17.13;4.68;;;16.10;88.20;;;;;;5088730;28;20040;-69
2021/03/29 11:04:54;;;;;;;15.45;4.60;;;16.10;88.20;;;;;;5088110;28;20032;-69
2021/03/29 11:07:20;;;;;;;16.45;5.10;;;16.20;89.10;;;;;;5092306;28;20434;-69
2021/03/29 11:09:45;;;;;;;14.77;4.70;;;16.10;88.40;;;;;;5088514;28;20036;-69
2021/03/29 11:12:11;;;;;;;20.13;4.97;;;16.10;88.40;;;;;;5087581;28;20043;-69
2021/03/29 11:14:37;;;;;;;16.15;4.80;;;16.00;88.30;;;;;;5091623;28;20474;-69
2021/03/29 11:17:03;;;;;;;15.30;4.75;;;15.90;86.70;;;;;;5087967;28;20046;-69
2021/03/29 11:19:32;;;;;;;13.60;3.80;;;15.90;87.50;;;;;;5090264;28;20119;-69
2021/03/29 11:21:58;;;;;;;17.15;5.32;;;15.90;89.70;;;;;;5116439;27;20497;-69
2021/03/29 11:24:24;;;;;;;14.30;4.93;;;16.00;90.00;;;;;;5092046;28;20035;-69
2021/03/29 11:26:50;;;;;;;16.30;5.18;;;16.10;90.00;;;;;;5085520;28;20039;-69
2021/03/29 11:29:16;;;;;;;15.38;4.85;;;16.20;90.30;;;;;;5093191;28;20032;-69
2021/03/29 11:31:43;;;;;;;18.77;4.65;;;16.30;88.80;;;;;;5086754;28;20044;-69
2021/03/29 11:34:10;;;;;;;20.33;4.53;;;16.20;88.80;;;;;;5089733;28;20051;-69
2021/03/29 11:36:36;;;;;;;18.10;4.68;;;16.20;87.70;;;;;;5090114;28;20067;-69
2021/03/29 11:39:06;;;;;;;16.75;4.43;;;16.30;88.20;;;;;;5089894;28;20074;-69
2021/03/29 11:41:32;;;;;;;17.63;5.53;;;16.30;88.70;;;;;;5091933;28;20044;-69
2021/03/29 11:43:58;;;;;;;17.25;4.63;;;16.30;90.10;;;;;;5087045;28;20051;-69
2021/03/29 11:46:24;;;;;;;17.25;4.47;;;16.40;87.90;;;;;;5089745;28;20039;-69
2021/03/29 11:48:50;;;;;;;18.50;5.10;;;16.40;88.60;;;;;;5089469;28;20040;-69
2021/03/29 11:51:16;;;;;;;20.63;5.13;;;16.40;88.20;;;;;;5089377;28;20047;-69
2021/03/29 11:53:42;;;;;;;20.02;4.63;;;16.50;89.70;;;;;;5089171;28;20444;-69
2021/03/29 11:56:08;;;;;;;15.68;5.05;;;16.50;86.90;;;;;;5091317;28;20048;-69
2021/03/29 11:58:34;;;;;;;12.30;4.22;;;16.50;88.50;;;;;;5089686;28;20036;-69
2021/03/29 12:01:14;;;;;;;18.17;5.07;;;16.40;87.50;;;;;;5086234;28;20039;-69
2021/03/29 12:06:13;;;;;;;16.52;5.50;;;16.60;87.30;;;;;;5088467;28;20086;-69
2021/03/29 12:14:14;;;;;;;20.60;5.30;;;16.80;87.50;;;;;;5025284;28;20057;-68
2021/03/29 12:16:42;;;;;;;16.10;6.93;;;16.70;86.90;;;;;;5055040;28;20108;-68
2021/03/29 12:19:07;;;;;;;22.73;5.50;;;16.70;88.70;;;;;;5086386;28;20051;-68
2021/03/29 12:21:37;;;;;;;17.42;6.15;;;16.70;88.00;;;;;;5084588;28;21139;-69
2021/03/29 12:24:20;;;;;;;15.98;4.95;;;16.70;87.60;;;;;;5084758;28;20043;-70
2021/03/29 12:26:47;;;;;;;18.23;5.53;;;16.80;89.10;;;;;;5086160;28;20549;-69
2021/03/29 12:29:34;;;;;;;15.20;5.75;;;16.80;88.90;;;;;;5087701;28;20046;-69
2021/03/29 12:32:01;;;;;;;15.25;5.32;;;16.90;87.10;;;;;;5086330;28;20055;-69
2021/03/29 12:34:28;;;;;;;15.50;4.85;;;16.90;87.60;;;;;;5088529;28;20040;-69
2021/03/29 12:36:55;;;;;;;13.95;5.00;;;17.00;85.50;;;;;;5086385;28;20147;-70
2021/03/29 12:39:35;;;;;;;20.63;6.18;;;16.90;85.20;;;;;;5088336;28;20111;-70
2021/03/29 12:42:03;;;;;;;14.18;4.90;;;16.80;86.10;;;;;;5085289;28;20043;-68
2021/03/29 12:44:33;;;;;;;18.30;5.25;;;16.80;86.90;;;;;;5086144;28;20063;-69
2021/03/29 12:47:01;;;;;;;12.10;4.72;;;16.80;87.90;;;;;;5085229;28;20371;-70
2021/03/29 12:49:27;;;;;;;13.52;4.53;;;16.80;87.50;;;;;;5088243;28;20043;-70
2021/03/29 12:51:58;;;;;;;21.02;6.50;;;17.00;87.30;;;;;;5084378;28;20047;-69
2021/03/29 12:54:27;;;;;;;16.33;5.75;;;17.00;87.00;;;;;;5086800;28;20042;-70
2021/03/29 12:56:54;;;;;;;19.13;5.72;;;17.10;87.90;;;;;;5086460;28;20089;-70
2021/03/29 12:59:22;;;;;;;15.82;5.80;;;17.10;86.80;;;;;;5086583;28;20043;-69
2021/03/29 13:01:49;;;;;;;12.65;4.82;;;17.10;85.30;;;;;;5087083;28;20066;-69
2021/03/29 13:04:22;;;;;;;12.63;4.70;;;17.10;85.20;;;;;;5084462;28;20032;-70
2021/03/29 13:12:04;;;;;;;13.35;4.78;;;17.00;86.20;;;;;;5087614;28;20032;-71
2021/03/29 13:15:06;;;;;;;16.20;4.82;;;17.00;87.40;;;;;;5083440;28;20051;-71
2021/03/29 13:17:37;;;;;;;14.18;5.22;;;17.00;87.40;;;;;;5085723;28;20474;-71